Maryland METAR Reports


Distance/Direction noted is from Ellicott City, MD as the crow flies

KCBE - Cumberland - 118 miles WNW
Updated: Wed, 08/27/2014 12:33 PM
Clear
Clear
 Wind from SSE
Wind: SSE 3 mph
Temperature: 88°F
Heat Index: 89°F
Dew Point: 63°F
Humidity: 43%
Barometer: 30.10 inHg
Clouds: Clear
Visibility: 10 miles
2014/08/27 16:33 KCBE 271633Z AUTO 16003KT 10SM CLR 31/17 A3010 RMK AO1
KHGR - Hagerstown - 57 miles NW
Updated: Wed, 08/27/2014 11:53 AM
Mostly Cloudy
Mostly Cloudy
 Wind from SSW
Wind: SSW 5 mph
Temperature: 79°F
Dew Point: 63°F
Humidity: 58%
Barometer: 30.08 inHg
Clouds: Mostly Cloudy
Visibility: 10 miles
Cloud Details: Mostly Cloudy 6000 ft
2014/08/27 15:53 KHGR 271553Z 21004KT 10SM BKN060 26/17 A3008 RMK AO2 SLP189 T02560172
 
KFDK - Frederick - 34 miles NW
Updated: Wed, 08/27/2014 12:47 PM
Partly Cloudy
Partly Cloudy
 Wind from varies
Wind: varies 3 mph
Temperature: 86°F
Heat Index: 91°F
Dew Point: 70°F
Humidity: 59%
Barometer: 30.07 inHg
Clouds: Partly Cloudy
Visibility: 10 miles
Cloud Details: Partly Cloudy 4700 ft
2014/08/27 16:47 KFDK 271647Z VRB03KT 10SM SCT047 30/21 A3007
KGAI - Gaithersburg - 26 miles SW
Updated: Wed, 08/27/2014 12:35 PM
Clear
Clear
 Wind from NW
Wind: NW 5 mph
Temperature: 82°F
Heat Index: 83°F
Dew Point: 63°F
Humidity: 51%
Barometer: 30.09 inHg
Clouds: Clear
Visibility: 10 miles
2014/08/27 16:35 KGAI 271635Z AUTO 32004KT 10SM CLR 28/17 A3009 RMK AO1
 
KBWI - BWI Airport - 15 miles SE
Updated: Wed, 08/27/2014 11:54 AM
Clear
Clear
 Wind from S
Wind: S 5 mph
Temperature: 82°F
Heat Index: 82°F
Dew Point: 61°F
Humidity: 48%
Barometer: 30.04 inHg
Clouds: Clear
Visibility: 10 miles
2014/08/27 15:54 KBWI 271554Z 17004KT 10SM CLR 28/16 A3004 RMK AO2 SLP172 T02830161
KNAK - Annapolis - 32 miles SSE
Updated: Wed, 08/27/2014 11:54 AM
Clear
Clear
 Wind from SE
Wind: SE 7 mph
Temperature: 79°F
Dew Point: 68°F
Humidity: 70%
Barometer: 30.05 inHg
Clouds: Clear
Visibility: 10 miles
2014/08/27 15:54 KNAK 271554Z AUTO 13006KT 10SM CLR 26/20 A3005 RMK AO2 SLP176 T02610200
 
KESN - Easton - 63 miles SE
Updated: Wed, 08/27/2014 12:50 PM
Clear
Clear
 Wind from calm
Wind: Calm
Temperature: 86°F
Heat Index: 88°F
Dew Point: 66°F
Humidity: 52%
Barometer: 30.06 inHg
Clouds: Clear
Visibility: 10 miles
2014/08/27 16:50 KESN 271650Z 00000KT 10SM SKC 30/19 A3006
KSBY - Salisbury - 112 miles SE
Updated: Wed, 08/27/2014 11:54 AM
Clear
Clear
 Wind from varies
Wind: varies 6 mph
Temperature: 84°F
Heat Index: 84°F
Dew Point: 61°F
Humidity: 45%
Barometer: 30.04 inHg
Clouds: Clear
Visibility: 10 miles
2014/08/27 15:54 KSBY 271554Z VRB05KT 10SM CLR 29/16 A3004 RMK AO2 SLP175 T02940161